Terminal Aerodrome Forecast
Issued by NWS

Home | Current Version | Previous Version | Text Only | Print | Product List | Glossary On
Versions: 1 2 3 4 5 6 7 8 9 10 11 12 13 14 15 16 17 18 19
000
FTUS43 KBIS 061852 AAA
TAFJMS
TAF AMD
KJMS 061852Z 0619/0718 13015G20KT 5SM BR VCSH OVC008
     FM062100 14015G20KT 4SM TSRA SCT005 OVC015CB
     FM070900 VRB03KT P6SM -SHRA OVC010=

USA.gov is the U.S. government's official web portal to all federal, state and local government web resources and services.